sensor_id;sensor_type;location;lat;lon;timestamp;P1;durP1;ratioP1;P2;durP2;ratioP2
62798;SDS011;48842;51.046;13.796;2023-06-14T00:01:08;4.83;;;2.70;;
62798;SDS011;48842;51.046;13.796;2023-06-14T00:03:34;2.60;;;2.40;;
62798;SDS011;48842;51.046;13.796;2023-06-14T00:05:59;3.33;;;2.67;;
62798;SDS011;48842;51.046;13.796;2023-06-14T00:08:24;4.43;;;2.67;;
62798;SDS011;48842;51.046;13.796;2023-06-14T00:10:50;3.73;;;2.90;;
62798;SDS011;48842;51.046;13.796;2023-06-14T00:13:16;3.07;;;2.00;;
62798;SDS011;48842;51.046;13.796;2023-06-14T00:15:41;2.60;;;2.50;;
62798;SDS011;48842;51.046;13.796;2023-06-14T00:18:07;5.00;;;2.70;;
62798;SDS011;48842;51.046;13.796;2023-06-14T00:20:32;2.70;;;2.40;;
62798;SDS011;48842;51.046;13.796;2023-06-14T00:23:00;3.43;;;3.13;;
62798;SDS011;48842;51.046;13.796;2023-06-14T00:25:26;5.63;;;2.80;;
62798;SDS011;48842;51.046;13.796;2023-06-14T00:27:52;3.23;;;2.93;;
62798;SDS011;48842;51.046;13.796;2023-06-14T00:30:18;2.70;;;2.50;;
62798;SDS011;48842;51.046;13.796;2023-06-14T00:32:44;5.57;;;3.10;;
62798;SDS011;48842;51.046;13.796;2023-06-14T00:35:10;4.93;;;2.60;;
62798;SDS011;48842;51.046;13.796;2023-06-14T00:37:36;2.70;;;2.50;;
62798;SDS011;48842;51.046;13.796;2023-06-14T00:40:02;7.40;;;2.50;;
62798;SDS011;48842;51.046;13.796;2023-06-14T00:42:29;2.93;;;2.63;;
62798;SDS011;48842;51.046;13.796;2023-06-14T00:44:54;3.43;;;3.10;;
62798;SDS011;48842;51.046;13.796;2023-06-14T00:47:20;4.50;;;2.40;;
62798;SDS011;48842;51.046;13.796;2023-06-14T00:49:46;4.10;;;2.97;;
62798;SDS011;48842;51.046;13.796;2023-06-14T00:52:12;4.67;;;3.03;;
62798;SDS011;48842;51.046;13.796;2023-06-14T00:54:40;3.00;;;2.80;;
62798;SDS011;48842;51.046;13.796;2023-06-14T00:57:05;2.23;;;2.13;;
62798;SDS011;48842;51.046;13.796;2023-06-14T00:59:32;3.60;;;3.30;;
62798;SDS011;48842;51.046;13.796;2023-06-14T01:01:57;10.13;;;2.57;;
62798;SDS011;48842;51.046;13.796;2023-06-14T01:04:22;3.00;;;2.80;;
62798;SDS011;48842;51.046;13.796;2023-06-14T01:09:48;3.90;;;2.77;;
62798;SDS011;48842;51.046;13.796;2023-06-14T01:12:31;4.07;;;3.13;;
62798;SDS011;48842;51.046;13.796;2023-06-14T01:15:15;3.13;;;2.67;;
62798;SDS011;48842;51.046;13.796;2023-06-14T01:17:42;3.00;;;2.80;;
62798;SDS011;48842;51.046;13.796;2023-06-14T01:20:11;4.93;;;2.80;;
62798;SDS011;48842;51.046;13.796;2023-06-14T01:22:47;8.83;;;2.80;;
62798;SDS011;48842;51.046;13.796;2023-06-14T01:25:16;3.00;;;2.80;;
62798;SDS011;48842;51.046;13.796;2023-06-14T01:27:45;3.60;;;3.30;;
62798;SDS011;48842;51.046;13.796;2023-06-14T01:30:11;4.30;;;2.87;;
62798;SDS011;48842;51.046;13.796;2023-06-14T01:32:37;4.00;;;3.20;;
62798;SDS011;48842;51.046;13.796;2023-06-14T01:35:03;3.43;;;2.70;;
62798;SDS011;48842;51.046;13.796;2023-06-14T01:37:28;3.63;;;3.23;;
62798;SDS011;48842;51.046;13.796;2023-06-14T01:39:55;3.50;;;3.20;;
62798;SDS011;48842;51.046;13.796;2023-06-14T01:42:20;3.60;;;2.60;;
62798;SDS011;48842;51.046;13.796;2023-06-14T01:44:47;3.87;;;3.10;;
62798;SDS011;48842;51.046;13.796;2023-06-14T01:47:14;4.13;;;3.63;;
62798;SDS011;48842;51.046;13.796;2023-06-14T01:49:39;3.40;;;3.10;;
62798;SDS011;48842;51.046;13.796;2023-06-14T01:52:05;10.40;;;3.00;;
62798;SDS011;48842;51.046;13.796;2023-06-14T01:54:31;3.93;;;3.60;;
62798;SDS011;48842;51.046;13.796;2023-06-14T01:56:56;4.13;;;3.70;;
62798;SDS011;48842;51.046;13.796;2023-06-14T01:59:22;5.23;;;3.50;;
62798;SDS011;48842;51.046;13.796;2023-06-14T02:01:47;5.87;;;3.33;;
62798;SDS011;48842;51.046;13.796;2023-06-14T02:04:12;4.87;;;3.17;;
62798;SDS011;48842;51.046;13.796;2023-06-14T02:06:37;4.63;;;3.30;;
62798;SDS011;48842;51.046;13.796;2023-06-14T02:09:03;5.07;;;3.33;;
62798;SDS011;48842;51.046;13.796;2023-06-14T02:11:28;3.93;;;3.63;;
62798;SDS011;48842;51.046;13.796;2023-06-14T02:13:54;3.60;;;3.30;;
62798;SDS011;48842;51.046;13.796;2023-06-14T02:16:20;3.47;;;3.23;;
62798;SDS011;48842;51.046;13.796;2023-06-14T02:18:45;3.43;;;3.13;;
62798;SDS011;48842;51.046;13.796;2023-06-14T02:21:11;8.23;;;3.53;;
62798;SDS011;48842;51.046;13.796;2023-06-14T02:23:36;4.20;;;3.80;;
62798;SDS011;48842;51.046;13.796;2023-06-14T02:26:01;4.23;;;3.93;;
62798;SDS011;48842;51.046;13.796;2023-06-14T02:28:27;7.20;;;3.40;;
62798;SDS011;48842;51.046;13.796;2023-06-14T02:30:53;3.73;;;3.43;;
62798;SDS011;48842;51.046;13.796;2023-06-14T02:33:18;6.67;;;3.43;;
62798;SDS011;48842;51.046;13.796;2023-06-14T02:35:43;3.53;;;3.13;;
62798;SDS011;48842;51.046;13.796;2023-06-14T02:38:08;3.57;;;3.37;;
62798;SDS011;48842;51.046;13.796;2023-06-14T02:40:34;7.70;;;3.53;;
62798;SDS011;48842;51.046;13.796;2023-06-14T02:42:59;6.67;;;3.63;;
62798;SDS011;48842;51.046;13.796;2023-06-14T02:45:24;4.13;;;3.60;;
62798;SDS011;48842;51.046;13.796;2023-06-14T02:47:50;4.70;;;3.10;;
62798;SDS011;48842;51.046;13.796;2023-06-14T02:50:16;7.53;;;4.20;;
62798;SDS011;48842;51.046;13.796;2023-06-14T02:52:41;7.20;;;5.50;;
62798;SDS011;48842;51.046;13.796;2023-06-14T02:55:07;7.00;;;3.80;;
62798;SDS011;48842;51.046;13.796;2023-06-14T02:57:33;4.57;;;4.20;;
62798;SDS011;48842;51.046;13.796;2023-06-14T02:59:58;4.27;;;3.87;;
62798;SDS011;48842;51.046;13.796;2023-06-14T03:02:23;4.40;;;3.60;;
62798;SDS011;48842;51.046;13.796;2023-06-14T03:04:48;3.80;;;3.40;;
62798;SDS011;48842;51.046;13.796;2023-06-14T03:07:14;4.23;;;3.87;;
62798;SDS011;48842;51.046;13.796;2023-06-14T03:09:44;3.67;;;3.37;;
62798;SDS011;48842;51.046;13.796;2023-06-14T03:12:10;4.43;;;3.80;;
62798;SDS011;48842;51.046;13.796;2023-06-14T03:14:36;3.87;;;3.57;;
62798;SDS011;48842;51.046;13.796;2023-06-14T03:17:02;10.47;;;3.70;;
62798;SDS011;48842;51.046;13.796;2023-06-14T03:19:29;5.50;;;3.97;;
62798;SDS011;48842;51.046;13.796;2023-06-14T03:21:55;4.70;;;4.20;;
62798;SDS011;48842;51.046;13.796;2023-06-14T03:24:22;6.10;;;3.77;;
62798;SDS011;48842;51.046;13.796;2023-06-14T03:26:48;4.07;;;3.77;;
62798;SDS011;48842;51.046;13.796;2023-06-14T03:29:13;6.33;;;3.70;;
62798;SDS011;48842;51.046;13.796;2023-06-14T03:31:41;4.23;;;3.83;;
62798;SDS011;48842;51.046;13.796;2023-06-14T03:34:22;5.00;;;3.63;;
62798;SDS011;48842;51.046;13.796;2023-06-14T03:36:47;3.83;;;3.57;;
62798;SDS011;48842;51.046;13.796;2023-06-14T03:39:12;6.73;;;3.60;;
62798;SDS011;48842;51.046;13.796;2023-06-14T03:41:37;15.27;;;4.33;;
62798;SDS011;48842;51.046;13.796;2023-06-14T03:44:03;5.30;;;4.90;;
62798;SDS011;48842;51.046;13.796;2023-06-14T03:46:28;4.10;;;3.70;;
62798;SDS011;48842;51.046;13.796;2023-06-14T03:48:53;10.47;;;4.13;;
62798;SDS011;48842;51.046;13.796;2023-06-14T03:51:18;5.10;;;4.07;;
62798;SDS011;48842;51.046;13.796;2023-06-14T03:53:44;4.27;;;3.97;;
62798;SDS011;48842;51.046;13.796;2023-06-14T03:56:09;4.23;;;3.83;;
62798;SDS011;48842;51.046;13.796;2023-06-14T03:58:35;3.93;;;3.43;;
62798;SDS011;48842;51.046;13.796;2023-06-14T04:01:00;3.63;;;3.40;;
62798;SDS011;48842;51.046;13.796;2023-06-14T04:03:25;17.97;;;3.80;;
62798;SDS011;48842;51.046;13.796;2023-06-14T04:05:54;5.43;;;3.83;;
62798;SDS011;48842;51.046;13.796;2023-06-14T04:08:21;7.80;;;4.23;;
62798;SDS011;48842;51.046;13.796;2023-06-14T04:10:47;5.53;;;3.83;;
62798;SDS011;48842;51.046;13.796;2023-06-14T04:13:12;4.53;;;4.10;;
62798;SDS011;48842;51.046;13.796;2023-06-14T04:15:38;3.80;;;3.60;;
62798;SDS011;48842;51.046;13.796;2023-06-14T04:18:07;5.83;;;4.23;;
62798;SDS011;48842;51.046;13.796;2023-06-14T04:20:32;5.13;;;4.40;;
62798;SDS011;48842;51.046;13.796;2023-06-14T04:23:10;5.20;;;4.33;;
62798;SDS011;48842;51.046;13.796;2023-06-14T04:25:37;5.00;;;4.60;;
62798;SDS011;48842;51.046;13.796;2023-06-14T04:28:02;5.20;;;4.70;;
62798;SDS011;48842;51.046;13.796;2023-06-14T04:30:28;5.53;;;5.13;;
62798;SDS011;48842;51.046;13.796;2023-06-14T04:32:56;6.13;;;4.30;;
62798;SDS011;48842;51.046;13.796;2023-06-14T04:35:22;4.50;;;4.20;;
62798;SDS011;48842;51.046;13.796;2023-06-14T04:37:49;5.30;;;4.80;;
62798;SDS011;48842;51.046;13.796;2023-06-14T04:40:14;4.70;;;4.30;;
62798;SDS011;48842;51.046;13.796;2023-06-14T04:42:40;5.77;;;4.77;;
62798;SDS011;48842;51.046;13.796;2023-06-14T04:45:05;5.13;;;4.63;;
62798;SDS011;48842;51.046;13.796;2023-06-14T04:47:32;5.13;;;4.67;;
62798;SDS011;48842;51.046;13.796;2023-06-14T04:49:57;5.83;;;4.87;;
62798;SDS011;48842;51.046;13.796;2023-06-14T04:52:25;7.60;;;4.90;;
62798;SDS011;48842;51.046;13.796;2023-06-14T04:54:51;6.20;;;4.70;;
62798;SDS011;48842;51.046;13.796;2023-06-14T04:57:17;5.87;;;5.17;;
62798;SDS011;48842;51.046;13.796;2023-06-14T04:59:46;5.37;;;4.80;;
62798;SDS011;48842;51.046;13.796;2023-06-14T05:02:12;5.00;;;4.57;;
62798;SDS011;48842;51.046;13.796;2023-06-14T05:04:37;5.53;;;5.00;;
62798;SDS011;48842;51.046;13.796;2023-06-14T05:07:06;6.80;;;5.60;;
62798;SDS011;48842;51.046;13.796;2023-06-14T05:09:33;6.90;;;5.50;;
62798;SDS011;48842;51.046;13.796;2023-06-14T05:11:58;7.83;;;5.00;;
62798;SDS011;48842;51.046;13.796;2023-06-14T05:14:25;5.33;;;4.93;;
62798;SDS011;48842;51.046;13.796;2023-06-14T05:16:50;4.80;;;4.40;;
62798;SDS011;48842;51.046;13.796;2023-06-14T05:19:16;6.13;;;4.80;;
62798;SDS011;48842;51.046;13.796;2023-06-14T05:21:42;9.93;;;5.60;;
62798;SDS011;48842;51.046;13.796;2023-06-14T05:24:08;5.33;;;4.90;;
62798;SDS011;48842;51.046;13.796;2023-06-14T05:26:34;8.37;;;6.30;;
62798;SDS011;48842;51.046;13.796;2023-06-14T05:29:00;6.30;;;5.70;;
62798;SDS011;48842;51.046;13.796;2023-06-14T05:31:26;12.00;;;4.93;;
62798;SDS011;48842;51.046;13.796;2023-06-14T05:33:52;6.37;;;5.73;;
62798;SDS011;48842;51.046;13.796;2023-06-14T05:36:18;9.83;;;6.97;;
62798;SDS011;48842;51.046;13.796;2023-06-14T05:38:44;18.03;;;6.17;;
62798;SDS011;48842;51.046;13.796;2023-06-14T05:41:10;5.50;;;4.77;;
62798;SDS011;48842;51.046;13.796;2023-06-14T05:43:35;6.53;;;5.77;;
62798;SDS011;48842;51.046;13.796;2023-06-14T05:46:01;7.30;;;5.63;;
62798;SDS011;48842;51.046;13.796;2023-06-14T05:48:26;6.17;;;5.57;;
62798;SDS011;48842;51.046;13.796;2023-06-14T05:50:51;5.63;;;5.10;;
62798;SDS011;48842;51.046;13.796;2023-06-14T05:53:16;9.50;;;6.03;;
62798;SDS011;48842;51.046;13.796;2023-06-14T05:55:42;6.73;;;5.33;;
62798;SDS011;48842;51.046;13.796;2023-06-14T05:58:07;5.93;;;5.43;;
62798;SDS011;48842;51.046;13.796;2023-06-14T06:00:32;8.67;;;5.50;;
62798;SDS011;48842;51.046;13.796;2023-06-14T06:02:58;5.67;;;4.63;;
62798;SDS011;48842;51.046;13.796;2023-06-14T06:05:24;12.43;;;5.70;;
62798;SDS011;48842;51.046;13.796;2023-06-14T06:07:49;7.73;;;5.90;;
62798;SDS011;48842;51.046;13.796;2023-06-14T06:10:15;6.10;;;5.60;;
62798;SDS011;48842;51.046;13.796;2023-06-14T06:12:41;6.87;;;5.30;;
62798;SDS011;48842;51.046;13.796;2023-06-14T06:15:07;7.20;;;5.63;;
62798;SDS011;48842;51.046;13.796;2023-06-14T06:17:36;5.57;;;4.97;;
62798;SDS011;48842;51.046;13.796;2023-06-14T06:20:03;8.13;;;5.30;;
62798;SDS011;48842;51.046;13.796;2023-06-14T06:22:30;13.43;;;5.40;;
62798;SDS011;48842;51.046;13.796;2023-06-14T06:24:55;6.13;;;5.53;;
62798;SDS011;48842;51.046;13.796;2023-06-14T06:27:21;5.57;;;5.17;;
62798;SDS011;48842;51.046;13.796;2023-06-14T06:29:46;5.77;;;5.23;;
62798;SDS011;48842;51.046;13.796;2023-06-14T06:32:13;6.20;;;5.57;;
62798;SDS011;48842;51.046;13.796;2023-06-14T06:34:41;7.43;;;5.43;;
62798;SDS011;48842;51.046;13.796;2023-06-14T06:37:13;5.57;;;4.93;;
62798;SDS011;48842;51.046;13.796;2023-06-14T06:39:39;8.03;;;4.57;;
62798;SDS011;48842;51.046;13.796;2023-06-14T06:42:04;6.33;;;5.77;;
62798;SDS011;48842;51.046;13.796;2023-06-14T06:44:30;6.13;;;4.93;;
62798;SDS011;48842;51.046;13.796;2023-06-14T06:46:55;5.60;;;5.20;;
62798;SDS011;48842;51.046;13.796;2023-06-14T06:49:20;5.87;;;4.90;;
62798;SDS011;48842;51.046;13.796;2023-06-14T06:51:58;7.73;;;5.07;;
62798;SDS011;48842;51.046;13.796;2023-06-14T06:54:25;6.00;;;5.40;;
62798;SDS011;48842;51.046;13.796;2023-06-14T06:56:50;8.10;;;4.83;;
62798;SDS011;48842;51.046;13.796;2023-06-14T06:59:16;6.30;;;4.40;;
62798;SDS011;48842;51.046;13.796;2023-06-14T07:01:41;6.70;;;4.27;;
62798;SDS011;48842;51.046;13.796;2023-06-14T07:04:07;6.40;;;5.77;;
62798;SDS011;48842;51.046;13.796;2023-06-14T07:06:32;5.17;;;4.77;;
62798;SDS011;48842;51.046;13.796;2023-06-14T07:08:57;5.60;;;5.10;;
62798;SDS011;48842;51.046;13.796;2023-06-14T07:11:26;5.23;;;4.77;;
62798;SDS011;48842;51.046;13.796;2023-06-14T07:13:51;5.40;;;4.90;;
62798;SDS011;48842;51.046;13.796;2023-06-14T07:16:17;5.77;;;5.20;;
62798;SDS011;48842;51.046;13.796;2023-06-14T07:18:42;5.87;;;5.37;;
62798;SDS011;48842;51.046;13.796;2023-06-14T07:21:08;4.50;;;4.20;;
62798;SDS011;48842;51.046;13.796;2023-06-14T07:23:33;4.87;;;4.37;;
62798;SDS011;48842;51.046;13.796;2023-06-14T07:26:00;4.80;;;4.40;;
62798;SDS011;48842;51.046;13.796;2023-06-14T07:28:25;8.27;;;4.37;;
62798;SDS011;48842;51.046;13.796;2023-06-14T07:30:50;5.07;;;4.47;;
62798;SDS011;48842;51.046;13.796;2023-06-14T07:33:15;4.47;;;4.17;;
62798;SDS011;48842;51.046;13.796;2023-06-14T07:35:41;5.20;;;4.70;;
62798;SDS011;48842;51.046;13.796;2023-06-14T07:38:06;4.70;;;3.50;;
62798;SDS011;48842;51.046;13.796;2023-06-14T07:40:31;3.80;;;3.50;;
62798;SDS011;48842;51.046;13.796;2023-06-14T07:42:56;7.53;;;4.37;;
62798;SDS011;48842;51.046;13.796;2023-06-14T07:45:22;3.80;;;3.53;;
62798;SDS011;48842;51.046;13.796;2023-06-14T07:47:47;3.53;;;3.33;;
62798;SDS011;48842;51.046;13.796;2023-06-14T07:50:12;4.07;;;3.80;;
62798;SDS011;48842;51.046;13.796;2023-06-14T07:52:38;3.63;;;3.20;;
62798;SDS011;48842;51.046;13.796;2023-06-14T07:55:04;6.63;;;3.27;;
62798;SDS011;48842;51.046;13.796;2023-06-14T07:57:30;2.97;;;2.77;;
62798;SDS011;48842;51.046;13.796;2023-06-14T07:59:55;3.80;;;3.47;;
62798;SDS011;48842;51.046;13.796;2023-06-14T08:02:20;4.70;;;4.23;;
62798;SDS011;48842;51.046;13.796;2023-06-14T08:04:46;4.17;;;3.87;;
62798;SDS011;48842;51.046;13.796;2023-06-14T08:07:13;3.83;;;3.53;;
62798;SDS011;48842;51.046;13.796;2023-06-14T08:09:38;3.53;;;3.33;;
62798;SDS011;48842;51.046;13.796;2023-06-14T08:12:04;3.63;;;3.40;;
62798;SDS011;48842;51.046;13.796;2023-06-14T08:14:32;3.73;;;2.73;;
62798;SDS011;48842;51.046;13.796;2023-06-14T08:16:58;3.50;;;3.20;;
62798;SDS011;48842;51.046;13.796;2023-06-14T08:19:23;2.83;;;2.63;;
62798;SDS011;48842;51.046;13.796;2023-06-14T08:21:48;2.33;;;2.23;;
62798;SDS011;48842;51.046;13.796;2023-06-14T08:24:14;2.50;;;2.30;;
62798;SDS011;48842;51.046;13.796;2023-06-14T08:26:40;2.80;;;2.60;;
62798;SDS011;48842;51.046;13.796;2023-06-14T08:29:05;2.53;;;2.33;;
62798;SDS011;48842;51.046;13.796;2023-06-14T08:31:32;2.63;;;2.50;;
62798;SDS011;48842;51.046;13.796;2023-06-14T08:33:57;5.40;;;2.13;;
62798;SDS011;48842;51.046;13.796;2023-06-14T08:36:23;3.00;;;1.97;;
62798;SDS011;48842;51.046;13.796;2023-06-14T08:38:48;5.23;;;2.90;;
62798;SDS011;48842;51.046;13.796;2023-06-14T08:41:13;3.10;;;2.37;;
62798;SDS011;48842;51.046;13.796;2023-06-14T08:43:47;2.70;;;2.50;;
62798;SDS011;48842;51.046;13.796;2023-06-14T08:46:12;2.50;;;2.40;;
62798;SDS011;48842;51.046;13.796;2023-06-14T08:48:41;2.97;;;2.77;;
62798;SDS011;48842;51.046;13.796;2023-06-14T08:51:08;3.93;;;2.70;;
62798;SDS011;48842;51.046;13.796;2023-06-14T08:53:35;4.93;;;2.87;;
62798;SDS011;48842;51.046;13.796;2023-06-14T08:56:06;6.07;;;3.57;;
62798;SDS011;48842;51.046;13.796;2023-06-14T08:58:42;3.37;;;3.17;;
62798;SDS011;48842;51.046;13.796;2023-06-14T09:01:10;3.40;;;3.20;;
62798;SDS011;48842;51.046;13.796;2023-06-14T09:03:39;3.17;;;2.93;;
62798;SDS011;48842;51.046;13.796;2023-06-14T09:06:06;3.77;;;3.47;;
62798;SDS011;48842;51.046;13.796;2023-06-14T09:08:33;3.00;;;2.80;;
62798;SDS011;48842;51.046;13.796;2023-06-14T09:11:00;2.93;;;2.80;;
62798;SDS011;48842;51.046;13.796;2023-06-14T09:13:26;3.33;;;3.03;;
62798;SDS011;48842;51.046;13.796;2023-06-14T09:15:52;2.53;;;2.33;;
62798;SDS011;48842;51.046;13.796;2023-06-14T09:18:17;3.40;;;3.10;;
62798;SDS011;48842;51.046;13.796;2023-06-14T09:20:42;3.80;;;3.50;;
62798;SDS011;48842;51.046;13.796;2023-06-14T09:23:08;3.00;;;2.80;;
62798;SDS011;48842;51.046;13.796;2023-06-14T09:25:41;5.50;;;3.70;;
62798;SDS011;48842;51.046;13.796;2023-06-14T09:28:07;4.83;;;3.60;;
62798;SDS011;48842;51.046;13.796;2023-06-14T09:30:33;4.27;;;3.97;;
62798;SDS011;48842;51.046;13.796;2023-06-14T09:32:58;5.00;;;3.97;;
62798;SDS011;48842;51.046;13.796;2023-06-14T09:35:24;5.40;;;3.70;;
62798;SDS011;48842;51.046;13.796;2023-06-14T09:37:49;4.10;;;3.80;;
62798;SDS011;48842;51.046;13.796;2023-06-14T09:40:19;5.70;;;5.07;;
62798;SDS011;48842;51.046;13.796;2023-06-14T09:42:45;4.77;;;4.07;;
62798;SDS011;48842;51.046;13.796;2023-06-14T09:45:10;4.97;;;4.47;;
62798;SDS011;48842;51.046;13.796;2023-06-14T09:47:37;4.30;;;3.90;;
62798;SDS011;48842;51.046;13.796;2023-06-14T09:50:04;5.10;;;4.23;;
62798;SDS011;48842;51.046;13.796;2023-06-14T09:52:29;4.13;;;3.83;;
62798;SDS011;48842;51.046;13.796;2023-06-14T09:54:55;3.90;;;3.50;;
62798;SDS011;48842;51.046;13.796;2023-06-14T09:57:23;3.33;;;3.13;;
62798;SDS011;48842;51.046;13.796;2023-06-14T09:59:52;4.60;;;3.43;;
62798;SDS011;48842;51.046;13.796;2023-06-14T10:02:22;3.93;;;3.60;;
62798;SDS011;48842;51.046;13.796;2023-06-14T10:05:11;3.20;;;2.90;;
62798;SDS011;48842;51.046;13.796;2023-06-14T10:07:56;4.13;;;3.00;;
62798;SDS011;48842;51.046;13.796;2023-06-14T10:10:25;6.53;;;2.73;;
62798;SDS011;48842;51.046;13.796;2023-06-14T10:12:50;3.70;;;2.87;;
62798;SDS011;48842;51.046;13.796;2023-06-14T10:15:18;3.10;;;2.80;;
62798;SDS011;48842;51.046;13.796;2023-06-14T10:17:52;5.00;;;2.80;;
62798;SDS011;48842;51.046;13.796;2023-06-14T10:20:30;7.80;;;2.70;;
62798;SDS011;48842;51.046;13.796;2023-06-14T10:23:26;3.43;;;3.20;;
62798;SDS011;48842;51.046;13.796;2023-06-14T10:25:59;5.47;;;2.67;;
62798;SDS011;48842;51.046;13.796;2023-06-14T10:28:25;3.73;;;3.43;;
62798;SDS011;48842;51.046;13.796;2023-06-14T10:33:33;3.90;;;3.30;;
62798;SDS011;48842;51.046;13.796;2023-06-14T10:36:09;2.50;;;2.37;;
62798;SDS011;48842;51.046;13.796;2023-06-14T10:38:57;2.27;;;2.17;;
62798;SDS011;48842;51.046;13.796;2023-06-14T10:41:50;3.43;;;3.17;;
62798;SDS011;48842;51.046;13.796;2023-06-14T10:46:54;3.40;;;3.10;;
62798;SDS011;48842;51.046;13.796;2023-06-14T10:49:42;3.97;;;2.90;;
62798;SDS011;48842;51.046;13.796;2023-06-14T11:00:11;3.70;;;3.40;;
62798;SDS011;48842;51.046;13.796;2023-06-14T11:05:18;5.57;;;2.90;;
62798;SDS011;48842;51.046;13.796;2023-06-14T11:10:38;4.40;;;3.10;;
62798;SDS011;48842;51.046;13.796;2023-06-14T11:13:05;6.63;;;2.90;;
62798;SDS011;48842;51.046;13.796;2023-06-14T11:15:31;4.37;;;3.50;;
62798;SDS011;48842;51.046;13.796;2023-06-14T11:17:58;4.10;;;3.53;;
62798;SDS011;48842;51.046;13.796;2023-06-14T11:20:26;3.90;;;3.50;;
62798;SDS011;48842;51.046;13.796;2023-06-14T11:22:52;8.87;;;3.50;;
62798;SDS011;48842;51.046;13.796;2023-06-14T11:25:18;3.40;;;3.20;;
62798;SDS011;48842;51.046;13.796;2023-06-14T11:27:44;4.00;;;3.60;;
62798;SDS011;48842;51.046;13.796;2023-06-14T11:30:10;5.17;;;4.47;;
62798;SDS011;48842;51.046;13.796;2023-06-14T11:32:36;4.40;;;4.10;;
62798;SDS011;48842;51.046;13.796;2023-06-14T11:35:03;4.43;;;4.13;;
62798;SDS011;48842;51.046;13.796;2023-06-14T11:37:30;5.93;;;4.73;;
62798;SDS011;48842;51.046;13.796;2023-06-14T11:39:57;5.30;;;3.90;;
62798;SDS011;48842;51.046;13.796;2023-06-14T11:42:24;3.73;;;3.37;;
62798;SDS011;48842;51.046;13.796;2023-06-14T11:44:51;12.33;;;3.53;;
62798;SDS011;48842;51.046;13.796;2023-06-14T11:47:18;4.13;;;3.83;;
62798;SDS011;48842;51.046;13.796;2023-06-14T11:49:43;3.83;;;3.60;;
62798;SDS011;48842;51.046;13.796;2023-06-14T11:52:08;5.23;;;3.67;;
62798;SDS011;48842;51.046;13.796;2023-06-14T11:54:33;3.67;;;3.40;;
62798;SDS011;48842;51.046;13.796;2023-06-14T11:56:59;4.10;;;3.70;;
62798;SDS011;48842;51.046;13.796;2023-06-14T11:59:25;7.33;;;4.10;;
62798;SDS011;48842;51.046;13.796;2023-06-14T12:01:50;7.30;;;3.90;;
62798;SDS011;48842;51.046;13.796;2023-06-14T12:04:24;4.20;;;3.80;;
62798;SDS011;48842;51.046;13.796;2023-06-14T12:06:52;3.83;;;3.40;;
62798;SDS011;48842;51.046;13.796;2023-06-14T12:09:18;4.60;;;4.20;;
62798;SDS011;48842;51.046;13.796;2023-06-14T12:11:44;4.87;;;4.37;;
62798;SDS011;48842;51.046;13.796;2023-06-14T12:14:10;5.13;;;4.20;;
62798;SDS011;48842;51.046;13.796;2023-06-14T12:16:37;3.67;;;3.47;;
62798;SDS011;48842;51.046;13.796;2023-06-14T12:19:13;4.13;;;3.80;;
62798;SDS011;48842;51.046;13.796;2023-06-14T12:21:41;4.73;;;4.10;;
62798;SDS011;48842;51.046;13.796;2023-06-14T12:24:07;4.13;;;3.73;;
62798;SDS011;48842;51.046;13.796;2023-06-14T12:26:32;4.07;;;3.77;;
62798;SDS011;48842;51.046;13.796;2023-06-14T12:28:58;4.77;;;4.40;;
62798;SDS011;48842;51.046;13.796;2023-06-14T12:31:24;4.50;;;4.20;;
62798;SDS011;48842;51.046;13.796;2023-06-14T12:33:49;4.70;;;4.30;;
62798;SDS011;48842;51.046;13.796;2023-06-14T12:36:15;5.27;;;4.17;;
62798;SDS011;48842;51.046;13.796;2023-06-14T12:38:41;4.90;;;4.50;;
62798;SDS011;48842;51.046;13.796;2023-06-14T12:41:06;9.30;;;4.27;;
62798;SDS011;48842;51.046;13.796;2023-06-14T12:43:32;4.47;;;3.50;;
62798;SDS011;48842;51.046;13.796;2023-06-14T12:45:57;3.93;;;3.63;;
62798;SDS011;48842;51.046;13.796;2023-06-14T12:48:23;4.40;;;3.97;;
62798;SDS011;48842;51.046;13.796;2023-06-14T12:50:48;3.57;;;3.33;;
62798;SDS011;48842;51.046;13.796;2023-06-14T12:53:14;11.10;;;4.13;;
62798;SDS011;48842;51.046;13.796;2023-06-14T12:55:39;4.63;;;4.23;;
62798;SDS011;48842;51.046;13.796;2023-06-14T12:58:04;3.80;;;3.50;;
62798;SDS011;48842;51.046;13.796;2023-06-14T13:00:30;8.03;;;3.57;;
62798;SDS011;48842;51.046;13.796;2023-06-14T13:02:55;6.83;;;4.00;;
62798;SDS011;48842;51.046;13.796;2023-06-14T13:05:21;4.13;;;3.83;;
62798;SDS011;48842;51.046;13.796;2023-06-14T13:07:46;5.50;;;3.70;;
62798;SDS011;48842;51.046;13.796;2023-06-14T13:10:12;4.13;;;3.73;;
62798;SDS011;48842;51.046;13.796;2023-06-14T13:12:37;5.60;;;3.47;;
62798;SDS011;48842;51.046;13.796;2023-06-14T13:15:02;9.90;;;3.53;;
62798;SDS011;48842;51.046;13.796;2023-06-14T13:17:28;5.80;;;2.90;;
62798;SDS011;48842;51.046;13.796;2023-06-14T13:19:53;6.13;;;2.90;;
62798;SDS011;48842;51.046;13.796;2023-06-14T13:22:18;5.43;;;2.87;;
62798;SDS011;48842;51.046;13.796;2023-06-14T13:24:44;6.43;;;4.00;;
62798;SDS011;48842;51.046;13.796;2023-06-14T13:27:09;5.90;;;3.57;;
62798;SDS011;48842;51.046;13.796;2023-06-14T13:29:35;5.43;;;3.83;;
62798;SDS011;48842;51.046;13.796;2023-06-14T13:32:01;4.13;;;3.83;;
62798;SDS011;48842;51.046;13.796;2023-06-14T13:34:27;6.60;;;4.30;;
62798;SDS011;48842;51.046;13.796;2023-06-14T13:36:52;4.93;;;3.90;;
62798;SDS011;48842;51.046;13.796;2023-06-14T13:39:18;8.80;;;3.90;;
62798;SDS011;48842;51.046;13.796;2023-06-14T13:41:43;6.20;;;4.00;;
62798;SDS011;48842;51.046;13.796;2023-06-14T13:44:09;3.93;;;3.53;;
62798;SDS011;48842;51.046;13.796;2023-06-14T13:46:39;3.33;;;3.10;;
62798;SDS011;48842;51.046;13.796;2023-06-14T13:49:04;8.43;;;3.30;;
62798;SDS011;48842;51.046;13.796;2023-06-14T13:51:30;2.93;;;2.73;;
62798;SDS011;48842;51.046;13.796;2023-06-14T13:53:55;4.27;;;2.90;;
62798;SDS011;48842;51.046;13.796;2023-06-14T13:56:20;2.70;;;2.50;;
62798;SDS011;48842;51.046;13.796;2023-06-14T13:58:47;3.17;;;2.97;;
62798;SDS011;48842;51.046;13.796;2023-06-14T14:01:13;4.60;;;2.63;;
62798;SDS011;48842;51.046;13.796;2023-06-14T14:03:38;5.13;;;2.23;;
62798;SDS011;48842;51.046;13.796;2023-06-14T14:06:03;2.70;;;1.97;;
62798;SDS011;48842;51.046;13.796;2023-06-14T14:08:29;6.50;;;2.13;;
62798;SDS011;48842;51.046;13.796;2023-06-14T14:10:54;10.23;;;2.70;;
62798;SDS011;48842;51.046;13.796;2023-06-14T14:13:21;3.30;;;2.57;;
62798;SDS011;48842;51.046;13.796;2023-06-14T14:15:46;3.03;;;2.63;;
62798;SDS011;48842;51.046;13.796;2023-06-14T14:18:11;3.23;;;2.87;;
62798;SDS011;48842;51.046;13.796;2023-06-14T14:20:37;3.40;;;2.20;;
62798;SDS011;48842;51.046;13.796;2023-06-14T14:23:02;3.93;;;2.30;;
62798;SDS011;48842;51.046;13.796;2023-06-14T14:25:27;2.67;;;2.47;;
62798;SDS011;48842;51.046;13.796;2023-06-14T14:27:53;6.10;;;2.70;;
62798;SDS011;48842;51.046;13.796;2023-06-14T14:30:18;2.13;;;2.03;;
62798;SDS011;48842;51.046;13.796;2023-06-14T14:32:48;2.60;;;2.30;;
62798;SDS011;48842;51.046;13.796;2023-06-14T14:35:14;5.10;;;2.40;;
62798;SDS011;48842;51.046;13.796;2023-06-14T14:37:39;2.93;;;2.20;;
62798;SDS011;48842;51.046;13.796;2023-06-14T14:40:05;2.30;;;2.20;;
62798;SDS011;48842;51.046;13.796;2023-06-14T14:42:31;1.80;;;1.70;;
62798;SDS011;48842;51.046;13.796;2023-06-14T14:44:56;2.20;;;2.10;;
62798;SDS011;48842;51.046;13.796;2023-06-14T14:47:21;3.57;;;2.10;;
62798;SDS011;48842;51.046;13.796;2023-06-14T14:49:46;2.50;;;2.30;;
62798;SDS011;48842;51.046;13.796;2023-06-14T14:52:12;1.97;;;1.80;;